LFRC/CER METAR and TAF weather

Enter ICAO airport designator
Station Type Date Time Source
LFRC METAR 2024/04/15 08:30 UTC NOAA

LFRC 150830Z AUTO 25026KT 9999 BKN014 OVC060 10/08 Q1012 TEMPO 25030G50KT 2500 SHRA BKN009 BKN020TCU


Station Type Date Time Source
LFRC Decoded METAR 2024/04/15 08:30 UTC NOAA

Cherbourg / Maupertus, France (LFRC) 49-39N 001-28W 139M
Apr 15, 2024 - 04:30 AM EDT / 2024.04.15 0830 UTC
Wind: from the WSW (250 degrees) at 30 MPH (26 KT):0
Visibility: greater than 7 mile(s):0
Sky conditions: overcast
Weather: Towering cumulus clouds observed
Temperature: 50 F (10 C)
Dew Point: 46 F (8 C)
Relative Humidity: 87%
Pressure (altimeter): 29.88 in. Hg (1012 hPa)
ob: LFRC 150830Z AUTO 25026KT 9999 BKN014 OVC060 10/08 Q1012 TEMPO 25030G50KT 2500 SHRA BKN009 BKN020TCU
cycle: 8

Station Type Date Time Source
LFRC TAF 2008/10/12 17:07 UTC NOAA